createdAt,value
2019-03-29T00:00:39.140Z,27.80
2019-03-29T00:03:09.205Z,25.20
2019-03-29T00:05:38.938Z,27.00
2019-03-29T00:08:09.110Z,24.23
2019-03-29T00:10:38.750Z,23.77
2019-03-29T00:13:08.181Z,27.03
2019-03-29T00:15:37.914Z,23.87
2019-03-29T00:18:07.368Z,24.07
2019-03-29T00:20:36.789Z,22.77
2019-03-29T00:23:06.207Z,26.30
2019-03-29T00:25:35.657Z,24.77
2019-03-29T00:28:05.162Z,24.27
2019-03-29T00:30:34.581Z,23.37
2019-03-29T00:33:04.008Z,24.97
2019-03-29T00:35:34.169Z,23.20
2019-03-29T00:38:03.934Z,25.70
2019-03-29T00:40:33.428Z,26.90
2019-03-29T00:43:03.261Z,26.47
2019-03-29T00:45:32.723Z,26.17
2019-03-29T00:48:02.180Z,27.00
2019-03-29T00:50:32.365Z,26.93
2019-03-29T00:53:02.805Z,26.70
2019-03-29T00:55:32.313Z,26.63
2019-03-29T00:58:01.725Z,26.37
2019-03-29T01:00:31.701Z,27.10
2019-03-29T01:03:01.359Z,26.77
2019-03-29T01:05:30.797Z,27.37
2019-03-29T01:08:07.864Z,27.10
2019-03-29T01:10:31.493Z,30.00
2019-03-29T01:13:00.925Z,27.87
2019-03-29T01:15:30.338Z,28.43
2019-03-29T01:17:59.749Z,26.37
2019-03-29T01:20:29.568Z,26.63
2019-03-29T01:22:58.999Z,25.87
2019-03-29T01:25:28.425Z,24.20
2019-03-29T01:27:58.278Z,24.73
2019-03-29T01:30:27.710Z,26.53
2019-03-29T01:32:57.112Z,28.50
2019-03-29T01:35:26.899Z,27.40
2019-03-29T01:37:56.327Z,29.43
2019-03-29T01:40:25.749Z,32.20
2019-03-29T01:42:55.207Z,34.87
2019-03-29T01:45:24.985Z,35.23
2019-03-29T01:47:55.392Z,34.50
2019-03-29T01:50:25.735Z,38.43
2019-03-29T01:52:55.153Z,40.63
2019-03-29T01:55:24.587Z,35.13
2019-03-29T01:57:54.006Z,34.90
2019-03-29T02:00:36.124Z,33.43
2019-03-29T02:03:05.795Z,36.93
2019-03-29T02:05:35.358Z,44.13
2019-03-29T02:08:05.058Z,41.00
2019-03-29T02:10:34.847Z,42.90
2019-03-29T02:13:04.355Z,45.97
2019-03-29T02:15:33.837Z,42.50
2019-03-29T02:18:03.257Z,44.73
2019-03-29T02:20:32.699Z,47.53
2019-03-29T02:23:02.121Z,54.87
2019-03-29T02:25:31.625Z,36.10
2019-03-29T02:28:01.051Z,34.97
2019-03-29T02:30:31.999Z,38.67
2019-03-29T02:33:01.760Z,36.60
2019-03-29T02:35:31.506Z,37.17
2019-03-29T02:38:01.046Z,36.37
2019-03-29T02:40:30.520Z,39.37
2019-03-29T02:42:59.949Z,38.03
2019-03-29T02:45:30.465Z,37.40
2019-03-29T02:48:00.175Z,40.83
2019-03-29T02:50:29.669Z,40.53
2019-03-29T02:52:59.389Z,42.03
2019-03-29T02:55:28.826Z,38.37
2019-03-29T02:57:58.256Z,36.27
2019-03-29T03:00:27.662Z,39.80
2019-03-29T03:02:57.172Z,44.37
2019-03-29T03:05:26.958Z,43.07
2019-03-29T03:07:56.372Z,38.10
2019-03-29T03:10:26.164Z,37.60
2019-03-29T03:12:55.575Z,37.80
2019-03-29T03:15:25.018Z,32.80
2019-03-29T03:17:54.779Z,33.43
2019-03-29T03:20:24.260Z,32.40
2019-03-29T03:22:54.176Z,34.40
2019-03-29T03:25:23.680Z,30.57
2019-03-29T03:27:53.109Z,31.87
2019-03-29T03:30:22.706Z,33.90
2019-03-29T03:32:52.300Z,33.30
2019-03-29T03:35:21.700Z,32.20
2019-03-29T03:37:51.504Z,30.00
2019-03-29T03:40:20.927Z,29.80
2019-03-29T03:42:50.715Z,28.33
2019-03-29T03:45:20.140Z,27.90
2019-03-29T03:47:49.551Z,27.87
2019-03-29T03:50:42.878Z,29.03
2019-03-29T03:53:12.688Z,25.43
2019-03-29T03:55:43.210Z,24.73
2019-03-29T03:58:13.519Z,28.13
2019-03-29T04:00:54.967Z,27.23
2019-03-29T04:03:25.494Z,26.60
2019-03-29T04:05:55.038Z,25.87
2019-03-29T04:08:25.590Z,26.13
2019-03-29T04:10:55.059Z,27.10
2019-03-29T04:13:24.490Z,27.63
2019-03-29T04:15:53.924Z,26.67
2019-03-29T04:18:23.335Z,26.53
2019-03-29T04:20:52.901Z,26.23
2019-03-29T04:23:22.665Z,26.87
2019-03-29T04:25:52.156Z,25.77
2019-03-29T04:28:21.642Z,25.50
2019-03-29T04:30:51.046Z,27.13
2019-03-29T04:33:20.549Z,27.77
2019-03-29T04:35:50.040Z,25.90
2019-03-29T04:38:19.444Z,26.43
2019-03-29T04:40:48.940Z,25.53
2019-03-29T04:43:18.355Z,27.73
2019-03-29T04:45:47.791Z,26.47
2019-03-29T04:48:17.337Z,24.57
2019-03-29T04:50:47.010Z,25.20
2019-03-29T04:53:16.459Z,26.43
2019-03-29T04:55:45.878Z,27.83
2019-03-29T04:58:15.304Z,28.10
2019-03-29T05:00:44.806Z,29.53
2019-03-29T05:03:14.253Z,30.90
2019-03-29T05:05:43.731Z,29.93
2019-03-29T05:08:13.135Z,31.13
2019-03-29T05:10:42.932Z,29.27
2019-03-29T05:13:12.392Z,27.73
2019-03-29T05:15:41.906Z,27.33
2019-03-29T05:18:11.322Z,27.37
2019-03-29T05:20:40.715Z,28.37
2019-03-29T05:23:10.298Z,28.13
2019-03-29T05:25:39.706Z,29.20
2019-03-29T05:28:09.154Z,28.83
2019-03-29T05:30:38.513Z,27.83
2019-03-29T05:33:07.917Z,27.87
2019-03-29T05:35:37.337Z,25.50
2019-03-29T05:38:07.070Z,29.30
2019-03-29T05:40:36.518Z,33.13
2019-03-29T05:43:05.920Z,32.70
2019-03-29T05:45:35.338Z,29.43
2019-03-29T05:48:04.840Z,31.60
2019-03-29T05:50:36.809Z,28.47
2019-03-29T05:53:05.404Z,28.33
2019-03-29T05:55:34.821Z,29.27
2019-03-29T05:58:04.274Z,28.13
2019-03-29T06:00:33.699Z,29.63
2019-03-29T06:03:03.185Z,28.73
2019-03-29T06:05:32.604Z,29.30
2019-03-29T06:08:02.020Z,27.53
2019-03-29T06:10:31.464Z,27.93
2019-03-29T06:13:00.879Z,30.50
2019-03-29T06:15:30.290Z,28.27
2019-03-29T06:18:00.038Z,31.37
2019-03-29T06:20:29.442Z,31.37
2019-03-29T06:22:58.870Z,29.60
2019-03-29T06:25:28.648Z,28.90
2019-03-29T06:27:58.038Z,29.23
2019-03-29T06:30:30.649Z,27.33
2019-03-29T06:33:00.241Z,27.07
2019-03-29T06:35:32.817Z,27.77
2019-03-29T06:38:04.058Z,25.37
2019-03-29T06:40:33.563Z,25.27
2019-03-29T06:43:02.969Z,23.37
2019-03-29T06:45:32.370Z,23.13
2019-03-29T06:48:01.794Z,23.40
2019-03-29T06:50:31.351Z,24.03
2019-03-29T06:53:00.840Z,22.47
2019-03-29T06:55:49.630Z,20.43
2019-03-29T06:58:19.088Z,21.30
2019-03-29T07:00:48.816Z,22.77
2019-03-29T07:03:18.235Z,23.60
2019-03-29T07:05:47.668Z,23.00
2019-03-29T07:08:17.176Z,21.27
2019-03-29T07:10:46.580Z,19.63
2019-03-29T07:13:16.036Z,19.63
2019-03-29T07:15:45.436Z,19.53
2019-03-29T07:18:14.864Z,20.10
2019-03-29T07:20:44.270Z,21.30
2019-03-29T07:23:13.725Z,21.03
2019-03-29T07:25:43.501Z,21.30
2019-03-29T07:28:12.927Z,19.17
2019-03-29T07:30:42.379Z,19.10
2019-03-29T07:33:11.809Z,16.87
2019-03-29T07:35:41.340Z,17.80
2019-03-29T07:38:10.771Z,16.47
2019-03-29T07:40:40.200Z,15.63
2019-03-29T07:43:10.006Z,17.77
2019-03-29T07:45:39.528Z,17.07
2019-03-29T07:48:08.989Z,17.40
2019-03-29T07:50:38.488Z,17.33
2019-03-29T07:53:07.978Z,18.37
2019-03-29T07:55:37.694Z,20.23
2019-03-29T07:58:07.220Z,20.93
2019-03-29T08:00:37.034Z,21.50
2019-03-29T08:03:06.475Z,21.27
2019-03-29T08:05:35.910Z,21.93
2019-03-29T08:08:06.941Z,22.63
2019-03-29T08:10:36.375Z,26.43
2019-03-29T08:13:05.896Z,25.63
2019-03-29T08:15:35.311Z,25.43
2019-03-29T08:18:04.764Z,29.23
2019-03-29T08:20:43.250Z,28.33
2019-03-29T08:23:05.576Z,27.77
2019-03-29T08:25:35.016Z,28.03
2019-03-29T08:28:04.459Z,31.27
2019-03-29T08:30:33.994Z,29.47
2019-03-29T08:33:03.629Z,31.27
2019-03-29T08:35:33.439Z,32.97
2019-03-29T08:38:06.048Z,30.97
2019-03-29T08:40:34.044Z,35.53
2019-03-29T08:43:03.487Z,33.27
2019-03-29T08:45:32.913Z,37.73
2019-03-29T08:48:02.606Z,34.80
2019-03-29T08:50:32.049Z,35.47
2019-03-29T08:53:01.462Z,36.80
2019-03-29T08:55:44.692Z,35.63
2019-03-29T08:58:02.196Z,34.03
2019-03-29T09:00:32.658Z,35.10
2019-03-29T09:03:02.303Z,35.47
2019-03-29T09:05:32.272Z,34.93
2019-03-29T09:08:01.786Z,34.53
2019-03-29T09:10:31.405Z,35.27
2019-03-29T09:13:04.228Z,34.40
2019-03-29T09:15:32.255Z,33.97
2019-03-29T09:18:01.678Z,36.67
2019-03-29T09:20:34.193Z,36.50
2019-03-29T09:23:02.400Z,34.80
2019-03-29T09:25:31.908Z,35.83
2019-03-29T09:28:01.778Z,32.67
2019-03-29T09:30:31.364Z,34.77
2019-03-29T09:33:00.818Z,34.93
2019-03-29T09:35:30.231Z,32.53
2019-03-29T09:37:59.680Z,34.83
2019-03-29T09:40:29.175Z,32.37
2019-03-29T09:43:07.123Z,33.90
2019-03-29T09:45:29.858Z,30.20
2019-03-29T09:47:59.563Z,31.10
2019-03-29T09:50:29.007Z,29.90
2019-03-29T09:53:01.212Z,29.87
2019-03-29T09:55:29.805Z,27.93
2019-03-29T09:57:59.224Z,29.20
2019-03-29T10:00:28.659Z,28.40
2019-03-29T10:02:58.101Z,28.63
2019-03-29T10:05:31.008Z,26.93
2019-03-29T10:07:58.822Z,27.77
2019-03-29T10:10:28.236Z,28.93
2019-03-29T10:12:57.653Z,26.37
2019-03-29T10:15:27.070Z,26.10
2019-03-29T10:17:56.482Z,25.70
2019-03-29T10:20:26.261Z,25.27
2019-03-29T10:22:55.742Z,24.43
2019-03-29T10:25:25.196Z,21.57
2019-03-29T10:27:54.615Z,22.17
2019-03-29T10:30:41.747Z,20.67
2019-03-29T10:33:11.434Z,18.80
2019-03-29T10:35:51.441Z,20.83
2019-03-29T10:38:18.197Z,18.33
2019-03-29T10:40:47.037Z,16.30
2019-03-29T10:43:16.522Z,16.73
2019-03-29T10:45:46.324Z,15.67
2019-03-29T10:48:15.820Z,14.33
2019-03-29T10:50:45.324Z,8.80
2019-03-29T10:53:14.829Z,12.80
2019-03-29T10:55:44.335Z,14.10
2019-03-29T10:58:13.952Z,13.60
2019-03-29T11:00:43.448Z,13.70
2019-03-29T11:03:13.038Z,14.97
2019-03-29T11:05:42.446Z,15.67
2019-03-29T11:08:12.403Z,17.87
2019-03-29T11:10:42.212Z,18.93
2019-03-29T11:13:13.854Z,18.63
2019-03-29T11:15:42.941Z,18.53
2019-03-29T11:18:12.595Z,17.20
2019-03-29T11:20:42.033Z,17.23
2019-03-29T11:23:11.547Z,15.37
2019-03-29T11:25:41.314Z,15.80
2019-03-29T11:28:10.751Z,14.70
2019-03-29T11:30:42.852Z,16.20
2019-03-29T11:33:11.767Z,16.37
2019-03-29T11:35:41.558Z,15.03
2019-03-29T11:38:10.977Z,14.80
2019-03-29T11:40:40.483Z,15.40
2019-03-29T11:43:10.038Z,15.43
2019-03-29T11:45:39.482Z,15.47
2019-03-29T11:48:09.737Z,15.67
2019-03-29T11:50:39.453Z,15.43
2019-03-29T11:53:08.868Z,15.70
2019-03-29T11:55:38.348Z,13.43
2019-03-29T11:58:08.212Z,13.97
2019-03-29T12:00:38.548Z,15.33
2019-03-29T12:03:09.377Z,14.23
2019-03-29T12:05:39.343Z,13.20
2019-03-29T12:08:08.848Z,12.97
2019-03-29T12:10:38.444Z,13.13
2019-03-29T12:13:09.490Z,11.80
2019-03-29T12:15:39.025Z,12.90
2019-03-29T12:18:08.586Z,12.07
2019-03-29T12:20:38.063Z,11.23
2019-03-29T12:23:07.944Z,11.83
2019-03-29T12:25:37.854Z,11.20
2019-03-29T12:28:07.425Z,10.90
2019-03-29T12:30:37.616Z,11.97
2019-03-29T12:33:07.073Z,11.03
2019-03-29T12:35:40.018Z,11.80
2019-03-29T12:38:09.580Z,12.30
2019-03-29T12:40:40.998Z,12.00
2019-03-29T12:43:12.569Z,14.00
2019-03-29T12:45:48.300Z,14.43
2019-03-29T12:48:18.006Z,14.10
2019-03-29T12:50:48.969Z,14.07
2019-03-29T12:53:18.404Z,13.60
2019-03-29T12:55:47.840Z,14.80
2019-03-29T12:58:36.626Z,15.57
2019-03-29T13:01:06.135Z,16.10
2019-03-29T13:03:35.593Z,17.50
2019-03-29T13:06:05.098Z,16.30
2019-03-29T13:08:34.495Z,18.57
2019-03-29T13:11:04.012Z,17.00
2019-03-29T13:13:33.429Z,17.33
2019-03-29T13:16:03.225Z,16.90
2019-03-29T13:18:32.879Z,17.10
2019-03-29T13:21:02.373Z,18.30
2019-03-29T13:23:31.815Z,16.40
2019-03-29T13:26:01.245Z,17.53
2019-03-29T13:28:30.989Z,19.30
2019-03-29T13:31:00.558Z,19.20
2019-03-29T13:33:29.981Z,18.10
2019-03-29T13:35:59.527Z,18.23
2019-03-29T13:38:28.924Z,18.67
2019-03-29T13:40:58.353Z,17.93
2019-03-29T13:43:27.855Z,19.43
2019-03-29T13:45:57.293Z,18.47
2019-03-29T13:48:26.730Z,17.67
2019-03-29T13:50:59.306Z,18.00
2019-03-29T13:53:27.397Z,18.80
2019-03-29T13:55:56.824Z,18.43
2019-03-29T13:58:26.320Z,19.00
2019-03-29T14:00:55.742Z,17.50
2019-03-29T14:03:25.162Z,18.57
2019-03-29T14:05:54.612Z,18.30
2019-03-29T14:08:24.034Z,16.87
2019-03-29T14:10:53.461Z,17.80
2019-03-29T14:13:22.887Z,16.80
2019-03-29T14:15:52.316Z,17.53
2019-03-29T14:18:21.760Z,17.97
2019-03-29T14:20:51.192Z,16.90
2019-03-29T14:23:20.639Z,15.27
2019-03-29T14:25:50.056Z,15.93
2019-03-29T14:28:19.470Z,16.27
2019-03-29T14:30:48.895Z,16.73
2019-03-29T14:33:18.321Z,17.00
2019-03-29T14:35:47.926Z,17.97
2019-03-29T14:38:17.344Z,16.70
2019-03-29T14:40:46.866Z,17.90
2019-03-29T14:43:16.302Z,17.47
2019-03-29T14:45:45.791Z,16.83
2019-03-29T14:48:15.308Z,17.03
2019-03-29T14:50:44.767Z,17.80
2019-03-29T14:53:14.241Z,17.33
2019-03-29T14:55:43.715Z,16.50
2019-03-29T14:58:13.213Z,18.00
2019-03-29T15:00:48.565Z,16.87
2019-03-29T15:03:17.845Z,16.60
2019-03-29T15:05:47.370Z,17.30
2019-03-29T15:08:16.812Z,16.87
2019-03-29T15:10:46.322Z,15.97
2019-03-29T15:13:15.752Z,14.43
2019-03-29T15:15:45.194Z,16.10
2019-03-29T15:18:14.723Z,16.10
2019-03-29T15:20:53.207Z,15.87
2019-03-29T15:23:15.655Z,15.53
2019-03-29T15:25:45.385Z,15.27
2019-03-29T15:28:14.909Z,15.20
2019-03-29T15:30:46.796Z,13.67
2019-03-29T15:33:16.225Z,15.17
2019-03-29T15:35:45.964Z,14.07
2019-03-29T15:38:15.404Z,13.33
2019-03-29T15:40:44.842Z,13.47
2019-03-29T15:43:15.019Z,13.63
2019-03-29T15:45:44.520Z,13.77
2019-03-29T15:48:14.271Z,14.40
2019-03-29T15:50:43.702Z,13.80
2019-03-29T15:53:13.127Z,12.90
2019-03-29T15:55:43.636Z,13.10
2019-03-29T15:58:13.075Z,13.83
2019-03-29T16:00:42.680Z,13.03
2019-03-29T16:03:12.102Z,12.60
2019-03-29T16:05:41.528Z,13.07
2019-03-29T16:08:10.958Z,12.40
2019-03-29T16:10:41.390Z,12.70
2019-03-29T16:13:11.110Z,12.47
2019-03-29T16:15:40.554Z,13.80
2019-03-29T16:18:10.017Z,12.37
2019-03-29T16:20:39.465Z,11.23
2019-03-29T16:23:08.890Z,10.77
2019-03-29T16:25:38.326Z,10.83
2019-03-29T16:28:07.766Z,10.83
2019-03-29T16:30:37.296Z,10.93
2019-03-29T16:33:07.132Z,10.93
2019-03-29T16:35:36.552Z,9.67
2019-03-29T16:38:06.062Z,9.50
2019-03-29T16:40:35.503Z,10.10
2019-03-29T16:43:04.962Z,9.00
2019-03-29T16:45:47.363Z,8.87
2019-03-29T16:48:06.817Z,9.77
2019-03-29T16:50:36.554Z,9.00
2019-03-29T16:53:06.052Z,9.23
2019-03-29T16:55:35.503Z,9.30
2019-03-29T16:58:05.070Z,9.50
2019-03-29T17:00:34.652Z,8.93
2019-03-29T17:03:04.366Z,9.63
2019-03-29T17:05:33.790Z,9.80
2019-03-29T17:08:05.236Z,10.17
2019-03-29T17:10:34.417Z,9.13
2019-03-29T17:13:03.944Z,8.77
2019-03-29T17:15:33.349Z,9.80
2019-03-29T17:18:02.769Z,9.67
2019-03-29T17:20:34.221Z,9.33
2019-03-29T17:23:03.650Z,10.20
2019-03-29T17:25:33.081Z,10.50
2019-03-29T17:28:02.653Z,9.50
2019-03-29T17:30:41.962Z,11.47
2019-03-29T17:33:11.390Z,10.17
2019-03-29T17:35:40.827Z,10.60
2019-03-29T17:38:10.258Z,11.23
2019-03-29T17:40:39.690Z,11.90
2019-03-29T17:43:09.187Z,11.67
2019-03-29T17:45:38.625Z,11.10
2019-03-29T17:48:08.123Z,13.40
2019-03-29T17:50:37.556Z,12.20
2019-03-29T17:53:08.425Z,13.73
2019-03-29T17:55:38.298Z,11.40
2019-03-29T17:58:07.798Z,11.97
2019-03-29T18:00:37.343Z,11.63
2019-03-29T18:03:10.701Z,12.77
2019-03-29T18:05:40.135Z,11.67
2019-03-29T18:08:09.668Z,11.80
2019-03-29T18:10:39.072Z,11.40
2019-03-29T18:13:08.568Z,11.07
2019-03-29T18:15:38.026Z,12.20
2019-03-29T18:18:07.477Z,11.83
2019-03-29T18:20:36.910Z,10.80
2019-03-29T18:23:06.475Z,11.23
2019-03-29T18:25:35.942Z,11.03
2019-03-29T18:28:05.440Z,11.73
2019-03-29T18:30:43.130Z,11.27
2019-03-29T18:33:12.708Z,11.17
2019-03-29T18:35:42.308Z,11.53
2019-03-29T18:38:12.102Z,11.47
2019-03-29T18:40:41.524Z,11.77
2019-03-29T18:43:10.944Z,10.93
2019-03-29T18:45:41.742Z,10.50
2019-03-29T18:48:11.443Z,11.27
2019-03-29T18:50:40.888Z,10.03
2019-03-29T18:53:10.314Z,10.43
2019-03-29T18:55:39.820Z,11.33
2019-03-29T18:58:09.252Z,11.57
2019-03-29T19:00:38.752Z,12.00
2019-03-29T19:03:11.531Z,12.33
2019-03-29T19:05:39.488Z,12.50
2019-03-29T19:08:08.922Z,12.70
2019-03-29T19:10:38.431Z,13.60
2019-03-29T19:13:07.935Z,13.10
2019-03-29T19:15:37.390Z,13.90
2019-03-29T19:18:06.933Z,13.03
2019-03-29T19:20:38.097Z,13.00
2019-03-29T19:23:07.932Z,12.03
2019-03-29T19:25:37.370Z,13.70
2019-03-29T19:28:06.832Z,14.60
2019-03-29T19:30:36.258Z,15.20
2019-03-29T19:33:05.818Z,16.03
2019-03-29T19:35:35.249Z,19.07
2019-03-29T19:38:04.754Z,24.90
2019-03-29T19:40:34.194Z,23.47
2019-03-29T19:43:03.706Z,22.00
2019-03-29T19:45:34.544Z,22.23
2019-03-29T19:48:04.193Z,20.57
2019-03-29T19:50:33.696Z,23.53
2019-03-29T19:53:03.170Z,22.63
2019-03-29T19:55:33.006Z,17.57
2019-03-29T19:58:02.489Z,14.40
2019-03-29T20:00:40.790Z,15.27
2019-03-29T20:03:10.455Z,13.47
2019-03-29T20:05:40.320Z,13.57
2019-03-29T20:08:09.940Z,14.47
2019-03-29T20:10:39.511Z,14.07
2019-03-29T20:13:09.106Z,14.97
2019-03-29T20:15:38.566Z,15.80
2019-03-29T20:18:08.049Z,17.67
2019-03-29T20:20:37.469Z,17.90
2019-03-29T20:23:07.009Z,16.53
2019-03-29T20:25:36.645Z,17.57
2019-03-29T20:28:06.353Z,17.73
2019-03-29T20:30:36.074Z,18.47
2019-03-29T20:33:05.680Z,20.03
2019-03-29T20:35:35.182Z,20.07
2019-03-29T20:38:04.849Z,21.07
2019-03-29T20:40:34.659Z,17.63
2019-03-29T20:43:04.161Z,17.27
2019-03-29T20:45:33.920Z,16.97
2019-03-29T20:48:04.047Z,16.83
2019-03-29T20:50:34.036Z,19.30
2019-03-29T20:53:03.738Z,22.50
2019-03-29T20:55:33.414Z,22.93
2019-03-29T20:58:03.044Z,20.73
2019-03-29T21:00:32.589Z,20.53
2019-03-29T21:03:02.037Z,22.27
2019-03-29T21:05:31.478Z,22.90
2019-03-29T21:08:00.913Z,28.20
2019-03-29T21:10:30.373Z,30.27
2019-03-29T21:12:59.873Z,28.20
2019-03-29T21:15:29.415Z,23.33
2019-03-29T21:17:58.857Z,20.13
2019-03-29T21:20:28.441Z,20.57
2019-03-29T21:22:57.898Z,23.03
2019-03-29T21:25:27.336Z,23.33
2019-03-29T21:27:56.810Z,24.33
2019-03-29T21:30:26.322Z,23.53
2019-03-29T21:32:55.820Z,23.77
2019-03-29T21:35:25.324Z,24.07
2019-03-29T21:37:54.762Z,24.43
2019-03-29T21:40:24.212Z,25.60
2019-03-29T21:43:13.411Z,25.63
2019-03-29T21:45:42.847Z,26.83
2019-03-29T21:48:28.105Z,26.60
2019-03-29T21:50:43.633Z,26.73
2019-03-29T21:53:13.205Z,27.03
2019-03-29T21:55:42.591Z,32.50
2019-03-29T21:58:12.082Z,29.50
2019-03-29T22:00:41.524Z,23.70
2019-03-29T22:03:11.214Z,27.13
2019-03-29T22:05:40.648Z,27.47
2019-03-29T22:08:10.072Z,29.57
2019-03-29T22:10:39.502Z,30.17
2019-03-29T22:13:08.942Z,36.27
2019-03-29T22:15:38.713Z,37.77
2019-03-29T22:18:08.215Z,40.23
2019-03-29T22:20:37.639Z,40.03
2019-03-29T22:23:07.104Z,37.27
2019-03-29T22:25:36.520Z,37.07
2019-03-29T22:28:06.284Z,36.73
2019-03-29T22:30:35.700Z,36.07
2019-03-29T22:33:05.154Z,37.87
2019-03-29T22:35:34.589Z,36.97
2019-03-29T22:38:04.082Z,38.13
2019-03-29T22:40:33.497Z,39.10
2019-03-29T22:43:02.947Z,38.37
2019-03-29T22:45:32.436Z,37.87
2019-03-29T22:48:01.890Z,32.90
2019-03-29T22:50:31.307Z,32.43
2019-03-29T22:53:00.734Z,32.60
2019-03-29T22:55:30.186Z,34.70
2019-03-29T22:57:59.615Z,33.80
2019-03-29T23:00:44.268Z,34.47
2019-03-29T23:03:13.910Z,37.07
2019-03-29T23:05:43.418Z,37.37
2019-03-29T23:08:12.882Z,37.47
2019-03-29T23:10:42.315Z,38.17
2019-03-29T23:13:11.759Z,40.40
2019-03-29T23:15:41.177Z,39.60
2019-03-29T23:18:10.613Z,43.40
2019-03-29T23:20:40.049Z,40.83
2019-03-29T23:23:09.483Z,40.87
2019-03-29T23:25:38.914Z,41.73
2019-03-29T23:28:08.344Z,43.93
2019-03-29T23:30:37.783Z,43.50
2019-03-29T23:33:07.554Z,43.47
2019-03-29T23:35:36.981Z,44.93
2019-03-29T23:38:06.408Z,42.40
2019-03-29T23:40:35.870Z,41.40
2019-03-29T23:43:05.429Z,44.03
2019-03-29T23:45:34.911Z,44.10
2019-03-29T23:48:04.336Z,45.97
2019-03-29T23:50:34.147Z,46.53
2019-03-29T23:53:03.566Z,47.53
2019-03-29T23:55:33.024Z,47.77
2019-03-29T23:58:02.525Z,45.13
